Aérodrome :
LOGIN :

S'inscrire | Disclaimer

   EN    FR    IT 

 










Légende :    VFR   VFR Marginal   IFR   IFR Intensif   IFR Très Intensif
Visi : 
Plafond : 
>= 8 km
>= 3000ft
5 à 8 km
1000 à 3000 ft
1500m à 5 km
500 à 1000 ft
800 à 1500m
200 à 500 ft
< 800m
< 200 ft
Symboles :   Orages  Brouillard  Fortes neiges  Fortes précipitations  Vent > 20 kt
SIGMETs :   Divers  Orages  Givrage  Turbulence  Onde Orograph.  Cendres Volcan.







- Altitude de l'aérodrome : 72 ft
- Code IATA : UDE


EHVK - Volkel Airbase

DERNIER METAR :
  • 140629Z AUTO 27006KT 240V300 9999 BKN019 OVC029 18/15 Q1012 WHT 27008KT 9999 SCT018 SCT030

METARs EXPIRÉS :
  • 140625Z AUTO 27005KT 250V310 9999 SCT019 BKN027 OVC031 18/16 Q1011 WHT 27008KT 9999 SCT018 SCT030
  • 140610Z AUTO 26006KT 240V300 9999 SCT017/// BKN021/// OVC028/// 18/16 Q1011 WHT 27008KT 4000 BR SCT015 SCT030
  • 140559Z AUTO 26005KT 230V290 6000 BR FEW010 SCT015 BKN019 18/17 Q1011 WHT 24008KT 4000 BR SCT006 BKN015 BECMG BKN015
  • 140555Z AUTO 26005KT 230V290 6000 BR FEW005 SCT013 BKN015 18/17 Q1011 GRN 24008KT 4000 BR SCT006 BKN015 BECMG BKN015
  • 140543Z AUTO 25005KT 220V280 4500 BR FEW005 SCT007 BKN012 18/17 Q1011 GRN 24008KT 4000 BR SCT006 BKN015 BECMG BKN015
  • 140539Z AUTO 25006KT 220V280 4000 BR FEW008 SCT012 BKN015 18/17 Q1011 GRN 24008KT 4000 BR SCT006 BKN015 BECMG BKN015
  • 140534Z AUTO 24007KT 210V270 3800 BR FEW005 SCT013 BKN016 18/17 Q1011 GRN 24008KT 4000 BR SCT006 BKN015 BECMG BKN015
  • 140525Z AUTO 24006KT 3500 BR SCT005 BKN007 BKN009 17/17 Q1011 YLO
  • 140515Z AUTO 24006KT 210V280 3500 BR FEW004 SCT006 BKN009 17/17 Q1011 YLO
  • 140510Z AUTO 24006KT 220V280 3700 BR FEW004 SCT007 OVC030 17/17 Q1010 GRN
  • 140500Z AUTO 24007KT 220V280 3700 BR FEW005 SCT006 BKN007 17/17 Q1010 YLO
  • 140455Z AUTO 24008KT 220V280 3600 BR FEW005 SCT010 BKN086 17/17 Q1010 YLO
  • 140439Z AUTO 24007KT 210V270 3200 BR FEW004 SCT006 BKN008 17/17 Q1010 YLO
  • 140425Z AUTO 23008KT 210V270 3200 BR SCT005 BKN007 OVC016 17/17 Q1010 YLO
  • 140416Z AUTO 23008KT 3100 BR FEW003 SCT007 BKN009 17/17 Q1010 YLO
  • 140355Z AUTO 23007KT 210V280 2900 BR SCT004 BKN005 BKN007 FEW015CB 17/17 Q1010 YLO

TAF TAF EHVK
Valide du 14 à 05h jusqu'au 14 à 17h UTC


140451Z 1405/1417 24007KT 4000 BR FEW006 SCT015 BKN020
BECMG 1406/1409 9999 NSW SCT018
BECMG 1409/1411 29008G18KT SCT022
Pas de NOTAMs connus pour ce terrain.



MET'MAP, la Météo Aéronautique d'un coup d'oeil ! - Copyright ORBIFLY Décembre 2007 - Disclaimer

ORBIFLY MET'MAP TEAM :

Programmation & Développement : Alexandra Zaïnal
Conception & Développement : Baudouin d'Aumeries
Co-Programmation & Développement : Marc-Olivier Méhu
Soutien technique & logistique : Manuel Goepfert

Contact : metmap@orbifly.com




SOURCES & CREDITS :

   NOAA